createdAt,value
2023-03-12T00:00:08.704Z,2.03
2023-03-12T00:02:35.547Z,1.83
2023-03-12T00:05:02.604Z,2.17
2023-03-12T00:07:29.432Z,1.63
2023-03-12T00:09:56.285Z,1.67
2023-03-12T00:12:23.032Z,1.80
2023-03-12T00:14:49.782Z,2.08
2023-03-12T00:17:16.518Z,1.90
2023-03-12T00:19:43.341Z,1.90
2023-03-12T00:22:10.078Z,1.63
2023-03-12T00:24:37.236Z,1.75
2023-03-12T00:27:04.036Z,1.80
2023-03-12T00:29:31.031Z,2.08
2023-03-12T00:31:57.774Z,1.92
2023-03-12T00:34:24.618Z,1.90
2023-03-12T00:36:51.395Z,1.80
2023-03-12T00:39:18.141Z,1.60
2023-03-12T00:41:44.877Z,1.98
2023-03-12T00:44:11.893Z,1.75
2023-03-12T00:46:38.729Z,2.20
2023-03-12T00:49:05.581Z,2.03
2023-03-12T00:51:32.395Z,1.95
2023-03-12T00:53:59.186Z,1.88
2023-03-12T00:56:26.039Z,2.35
2023-03-12T00:58:52.808Z,2.05
2023-03-12T01:01:20.006Z,1.50
2023-03-12T01:03:47.782Z,2.58
2023-03-12T01:06:14.594Z,2.25
2023-03-12T01:08:41.344Z,3.90
2023-03-12T01:11:12.353Z,2.58
2023-03-12T01:13:39.303Z,2.53
2023-03-12T01:16:06.799Z,2.25
2023-03-12T01:18:33.635Z,2.72
2023-03-12T01:21:00.424Z,2.53
2023-03-12T01:23:27.687Z,2.72
2023-03-12T01:25:57.335Z,2.17
2023-03-12T01:28:25.863Z,2.50
2023-03-12T01:30:53.491Z,1.90
2023-03-12T01:33:22.797Z,2.17
2023-03-12T01:35:50.205Z,2.63
2023-03-12T01:38:19.025Z,1.95
2023-03-12T01:40:45.941Z,1.70
2023-03-12T01:43:34.959Z,2.25
2023-03-12T01:46:33.509Z,1.90
2023-03-12T01:49:09.741Z,2.30
2023-03-12T01:51:52.206Z,2.28
2023-03-12T01:54:27.161Z,2.72
2023-03-12T01:56:56.372Z,1.90
2023-03-12T01:59:33.348Z,1.98
2023-03-12T02:02:00.767Z,2.53
2023-03-12T02:04:31.061Z,2.05
2023-03-12T02:07:12.689Z,2.15
2023-03-12T02:09:48.811Z,2.05
2023-03-12T02:12:17.229Z,2.10
2023-03-12T02:14:44.772Z,1.88
2023-03-12T02:17:12.435Z,1.42
2023-03-12T02:20:10.980Z,2.22
2023-03-12T02:22:41.777Z,2.13
2023-03-12T02:25:26.493Z,1.83
2023-03-12T02:27:53.439Z,2.40
2023-03-12T02:30:21.061Z,2.55
2023-03-12T02:32:50.630Z,2.78
2023-03-12T02:35:17.922Z,2.13
2023-03-12T02:37:54.341Z,2.28
2023-03-12T02:40:37.262Z,2.15
2023-03-12T02:43:07.907Z,1.90
2023-03-12T02:45:38.152Z,2.60
2023-03-12T02:48:08.928Z,2.63
2023-03-12T02:50:35.668Z,2.70
2023-03-12T02:53:02.399Z,2.53
2023-03-12T02:55:29.717Z,2.28
2023-03-12T02:57:56.498Z,1.98
2023-03-12T03:00:23.295Z,2.75
2023-03-12T03:02:50.203Z,2.38
2023-03-12T03:05:16.991Z,2.10
2023-03-12T03:07:43.755Z,2.90
2023-03-12T03:10:11.171Z,2.70
2023-03-12T03:12:38.053Z,2.25
2023-03-12T03:15:05.618Z,2.20
2023-03-12T03:17:32.374Z,2.10
2023-03-12T03:19:59.101Z,1.90
2023-03-12T03:22:25.844Z,2.20
2023-03-12T03:24:54.030Z,2.22
2023-03-12T03:27:20.828Z,2.00
2023-03-12T03:29:47.580Z,2.70
2023-03-12T03:32:14.509Z,2.53
2023-03-12T03:34:41.328Z,2.97
2023-03-12T03:37:08.250Z,3.40
2023-03-12T03:39:35.038Z,2.70
2023-03-12T03:42:02.103Z,2.78
2023-03-12T03:44:29.352Z,3.03
2023-03-12T03:46:56.187Z,2.63
2023-03-12T03:49:23.918Z,2.67
2023-03-12T03:51:51.836Z,2.47
2023-03-12T03:54:19.083Z,3.08
2023-03-12T03:56:47.558Z,2.47
2023-03-12T03:59:14.730Z,2.85
2023-03-12T04:01:41.681Z,2.30
2023-03-12T04:04:08.561Z,2.70
2023-03-12T04:06:35.337Z,2.95
2023-03-12T04:09:02.144Z,2.53
2023-03-12T04:11:29.352Z,2.50
2023-03-12T04:13:57.401Z,2.60
2023-03-12T04:16:24.764Z,3.47
2023-03-12T04:18:51.540Z,3.05
2023-03-12T04:21:18.559Z,3.13
2023-03-12T04:23:45.293Z,3.35
2023-03-12T04:26:12.086Z,2.67
2023-03-12T04:28:38.944Z,2.70
2023-03-12T04:31:08.365Z,3.13
2023-03-12T04:33:38.855Z,2.65
2023-03-12T04:36:06.772Z,2.75
2023-03-12T04:38:33.871Z,2.95
2023-03-12T04:41:12.417Z,3.60
2023-03-12T04:43:39.538Z,3.00
2023-03-12T04:46:07.347Z,3.70
2023-03-12T04:48:35.460Z,4.05
2023-03-12T04:51:04.485Z,3.92
2023-03-12T04:53:31.454Z,3.10
2023-03-12T04:55:58.518Z,4.57
2023-03-12T04:58:25.554Z,4.35
2023-03-12T05:00:52.294Z,3.90
2023-03-12T05:03:19.437Z,4.93
2023-03-12T05:05:46.332Z,4.65
2023-03-12T05:08:13.083Z,3.63
2023-03-12T05:10:40.277Z,3.70
2023-03-12T05:13:19.349Z,4.03
2023-03-12T05:15:47.647Z,4.10
2023-03-12T05:18:14.670Z,4.10
2023-03-12T05:20:41.508Z,3.72
2023-03-12T05:23:08.602Z,4.50
2023-03-12T05:25:40.509Z,3.50
2023-03-12T05:28:07.435Z,4.25
2023-03-12T05:30:34.299Z,4.60
2023-03-12T05:33:01.042Z,3.67
2023-03-12T05:35:27.782Z,4.20
2023-03-12T05:37:54.502Z,4.40
2023-03-12T05:40:21.649Z,4.20
2023-03-12T05:42:48.422Z,4.22
2023-03-12T05:45:15.208Z,3.88
2023-03-12T05:47:43.277Z,4.00
2023-03-12T05:50:11.348Z,4.10
2023-03-12T05:52:38.305Z,3.50
2023-03-12T05:55:05.968Z,3.50
2023-03-12T05:57:32.800Z,3.45
2023-03-12T05:59:59.518Z,3.90
2023-03-12T06:02:26.754Z,3.58
2023-03-12T06:04:53.873Z,3.08
2023-03-12T06:07:20.606Z,2.92
2023-03-12T06:09:47.334Z,3.35
2023-03-12T06:12:14.698Z,3.03
2023-03-12T06:14:41.559Z,2.50
2023-03-12T06:17:08.411Z,2.95
2023-03-12T06:19:35.173Z,2.53
2023-03-12T06:22:01.993Z,2.90
2023-03-12T06:24:28.777Z,3.13
2023-03-12T06:26:55.554Z,2.90
2023-03-12T06:29:22.285Z,2.88
2023-03-12T06:31:52.149Z,3.00
2023-03-12T06:34:18.953Z,2.38
2023-03-12T06:36:46.021Z,2.75
2023-03-12T06:39:13.173Z,2.40
2023-03-12T06:41:41.481Z,2.25
2023-03-12T06:44:08.208Z,2.83
2023-03-12T06:46:35.118Z,2.60
2023-03-12T06:49:01.878Z,2.58
2023-03-12T06:51:28.662Z,2.58
2023-03-12T06:53:55.520Z,2.38
2023-03-12T06:56:22.264Z,2.70
2023-03-12T06:58:49.035Z,2.33
2023-03-12T07:01:16.850Z,2.70
2023-03-12T07:03:43.714Z,2.35
2023-03-12T07:06:19.373Z,2.45
2023-03-12T07:08:47.082Z,2.63
2023-03-12T07:11:14.628Z,2.60
2023-03-12T07:13:41.660Z,2.78
2023-03-12T07:16:09.555Z,2.60
2023-03-12T07:18:36.430Z,2.88
2023-03-12T07:21:03.913Z,2.78
2023-03-12T07:23:30.691Z,2.78
2023-03-12T07:25:57.770Z,2.70
2023-03-12T07:28:24.518Z,3.08
2023-03-12T07:30:51.391Z,3.30
2023-03-12T07:33:21.295Z,3.33
2023-03-12T07:35:51.462Z,4.07
2023-03-12T07:38:19.304Z,3.00
2023-03-12T07:40:54.863Z,3.13
2023-03-12T07:43:22.306Z,3.42
2023-03-12T07:45:50.013Z,3.03
2023-03-12T07:48:19.482Z,3.30
2023-03-12T07:50:46.845Z,2.80
2023-03-12T07:53:13.572Z,3.17
2023-03-12T07:55:40.475Z,3.20
2023-03-12T07:58:07.441Z,3.30
2023-03-12T08:00:34.271Z,2.80
2023-03-12T08:03:01.321Z,3.00
2023-03-12T08:05:28.294Z,2.60
2023-03-12T08:07:55.147Z,3.03
2023-03-12T08:10:24.131Z,2.80
2023-03-12T08:12:51.067Z,2.50
2023-03-12T08:15:17.916Z,2.60
2023-03-12T08:17:44.717Z,2.78
2023-03-12T08:20:13.283Z,2.65
2023-03-12T08:22:40.613Z,2.35
2023-03-12T08:25:08.713Z,2.33
2023-03-12T08:27:35.724Z,2.53
2023-03-12T08:30:02.517Z,2.00
2023-03-12T08:32:29.415Z,2.10
2023-03-12T08:34:57.682Z,2.92
2023-03-12T08:37:24.419Z,2.50
2023-03-12T08:39:51.150Z,2.40
2023-03-12T08:42:20.645Z,2.40
2023-03-12T08:44:47.362Z,2.00
2023-03-12T08:47:14.159Z,2.50
2023-03-12T08:49:40.979Z,2.63
2023-03-12T08:52:07.856Z,2.30
2023-03-12T08:54:34.594Z,2.78
2023-03-12T08:57:01.539Z,2.03
2023-03-12T08:59:28.266Z,2.40
2023-03-12T09:01:55.422Z,2.50
2023-03-12T09:04:22.263Z,2.28
2023-03-12T09:06:49.223Z,2.45
2023-03-12T09:09:16.065Z,2.50
2023-03-12T09:11:42.834Z,2.33
2023-03-12T09:16:57.903Z,2.53
2023-03-12T09:19:24.969Z,2.50
2023-03-12T09:21:51.847Z,1.70
2023-03-12T09:24:19.195Z,2.63
2023-03-12T09:26:46.127Z,1.90
2023-03-12T09:29:13.097Z,2.65
2023-03-12T09:31:39.958Z,2.17
2023-03-12T09:34:06.905Z,1.90
2023-03-12T09:36:34.234Z,1.63
2023-03-12T09:39:01.069Z,1.88
2023-03-12T09:41:32.535Z,1.55
2023-03-12T09:44:16.780Z,1.52
2023-03-12T09:49:48.231Z,1.48
2023-03-12T09:52:30.659Z,1.80
2023-03-12T09:55:16.352Z,2.28
2023-03-12T09:57:49.269Z,1.90
2023-03-12T10:00:23.885Z,1.83
2023-03-12T10:03:23.628Z,1.52
2023-03-12T10:06:14.863Z,1.70
2023-03-12T10:09:19.662Z,1.50
2023-03-12T10:12:03.790Z,1.38
2023-03-12T10:14:57.834Z,2.03
2023-03-12T10:17:46.807Z,1.35
2023-03-12T10:20:46.171Z,1.48
2023-03-12T10:23:45.976Z,1.30
2023-03-12T10:26:22.663Z,1.45
2023-03-12T10:29:06.881Z,1.27
2023-03-12T10:34:37.996Z,1.38
2023-03-12T10:37:22.353Z,1.38
2023-03-12T10:39:50.520Z,1.48
2023-03-12T10:42:24.871Z,1.42
2023-03-12T10:44:58.665Z,1.45
2023-03-12T10:47:41.615Z,1.70
2023-03-12T10:50:23.079Z,1.30
2023-03-12T10:52:53.077Z,1.25
2023-03-12T10:55:30.379Z,1.48
2023-03-12T10:57:57.381Z,1.08
2023-03-12T11:00:32.202Z,1.20
2023-03-12T11:03:21.766Z,1.25
2023-03-12T11:05:52.993Z,1.80
2023-03-12T11:08:24.746Z,1.70
2023-03-12T11:10:51.742Z,1.50
2023-03-12T11:13:36.431Z,1.50
2023-03-12T11:16:31.437Z,3.28
2023-03-12T11:19:02.086Z,1.90
2023-03-12T11:21:37.106Z,1.42
2023-03-12T11:24:11.972Z,1.80
2023-03-12T11:27:36.416Z,1.92
2023-03-12T11:30:11.008Z,2.30
2023-03-12T11:32:44.794Z,1.95
2023-03-12T11:35:15.716Z,2.03
2023-03-12T11:38:16.151Z,2.05
2023-03-12T11:41:04.456Z,2.10
2023-03-12T11:43:43.893Z,2.08
2023-03-12T11:47:06.392Z,1.90
2023-03-12T11:50:16.648Z,2.20
2023-03-12T11:53:39.869Z,1.85
2023-03-12T11:56:49.229Z,1.88
2023-03-12T11:59:39.697Z,1.60
2023-03-12T12:02:40.124Z,1.70
2023-03-12T12:05:55.166Z,1.60
2023-03-12T12:08:40.653Z,2.25
2023-03-12T12:11:41.048Z,1.60
2023-03-12T12:14:34.635Z,1.55
2023-03-12T12:17:58.478Z,1.77
2023-03-12T12:20:58.179Z,1.63
2023-03-12T12:24:27.162Z,1.40
2023-03-12T12:27:18.834Z,1.35
2023-03-12T12:30:14.176Z,1.70
2023-03-12T12:33:22.773Z,2.20
2023-03-12T12:35:51.046Z,1.90
2023-03-12T12:38:34.589Z,1.83
2023-03-12T12:41:27.073Z,2.03
2023-03-12T12:44:12.369Z,2.20
2023-03-12T12:46:46.386Z,2.00
2023-03-12T12:49:22.385Z,1.60
2023-03-12T12:51:57.211Z,1.95
2023-03-12T12:54:43.620Z,1.77
2023-03-12T12:57:30.045Z,1.75
2023-03-12T13:00:15.328Z,2.25
2023-03-12T13:02:47.942Z,2.15
2023-03-12T13:05:25.802Z,2.10
2023-03-12T13:07:53.275Z,2.15
2023-03-12T13:10:35.069Z,2.05
2023-03-12T13:13:07.675Z,2.30
2023-03-12T13:15:43.403Z,1.80
2023-03-12T13:18:29.073Z,1.90
2023-03-12T13:20:55.704Z,1.77
2023-03-12T13:23:45.200Z,1.65
2023-03-12T13:26:26.201Z,2.00
2023-03-12T13:28:56.944Z,2.33
2023-03-12T13:31:29.622Z,1.85
2023-03-12T13:34:06.265Z,2.20
2023-03-12T13:36:37.625Z,2.47
2023-03-12T13:39:07.660Z,2.03
2023-03-12T13:41:41.362Z,2.08
2023-03-12T13:44:23.908Z,1.73
2023-03-12T13:47:29.256Z,1.60
2023-03-12T13:50:05.743Z,1.55
2023-03-12T13:53:07.399Z,1.60
2023-03-12T13:55:37.705Z,2.08
2023-03-12T13:58:21.407Z,1.60
2023-03-12T14:01:07.533Z,1.27
2023-03-12T14:03:44.830Z,1.15
2023-03-12T14:06:24.216Z,1.20
2023-03-12T14:09:01.469Z,1.42
2023-03-12T14:11:48.944Z,1.30
2023-03-12T14:14:41.428Z,1.23
2023-03-12T14:17:19.838Z,1.13
2023-03-12T14:19:56.158Z,1.42
2023-03-12T14:22:24.530Z,1.30
2023-03-12T14:25:02.061Z,1.10
2023-03-12T14:27:33.717Z,1.00
2023-03-12T14:30:24.568Z,1.25
2023-03-12T14:33:01.272Z,1.20
2023-03-12T14:35:50.298Z,1.20
2023-03-12T14:38:36.428Z,1.23
2023-03-12T14:41:18.607Z,1.10
2023-03-12T14:43:46.432Z,1.40
2023-03-12T14:46:21.310Z,1.10
2023-03-12T14:48:54.850Z,1.38
2023-03-12T14:51:29.855Z,1.75
2023-03-12T14:54:03.339Z,1.33
2023-03-12T14:56:35.106Z,1.45
2023-03-12T14:59:32.041Z,1.40
2023-03-12T15:02:13.321Z,1.23
2023-03-12T15:04:41.629Z,1.42
2023-03-12T15:07:14.574Z,1.50
2023-03-12T15:09:45.716Z,1.30
2023-03-12T15:12:26.139Z,1.23
2023-03-12T15:15:03.261Z,1.30
2023-03-12T15:17:32.063Z,1.50
2023-03-12T15:19:59.496Z,1.42
2023-03-12T15:22:30.213Z,1.55
2023-03-12T15:25:23.101Z,1.77
2023-03-12T15:28:32.603Z,2.15
2023-03-12T15:31:16.520Z,1.15
2023-03-12T15:33:44.830Z,1.42
2023-03-12T15:36:14.728Z,1.33
2023-03-12T15:38:48.661Z,1.60
2023-03-12T15:41:25.618Z,1.50
2023-03-12T15:43:58.683Z,1.55
2023-03-12T15:46:27.504Z,1.30
2023-03-12T15:48:58.959Z,2.08
2023-03-12T15:51:38.130Z,1.63
2023-03-12T15:54:18.730Z,1.73
2023-03-12T15:56:45.506Z,1.85
2023-03-12T15:59:27.501Z,1.67
2023-03-12T16:01:56.484Z,1.58
2023-03-12T16:04:24.558Z,2.20
2023-03-12T16:06:53.369Z,2.17
2023-03-12T16:09:26.197Z,2.20
2023-03-12T16:11:55.509Z,2.33
2023-03-12T16:14:32.835Z,2.70
2023-03-12T16:16:59.628Z,1.98
2023-03-12T16:19:30.118Z,1.75
2023-03-12T16:21:56.957Z,2.33
2023-03-12T16:24:23.709Z,2.15
2023-03-12T16:26:56.583Z,2.30
2023-03-12T16:29:32.013Z,2.22
2023-03-12T16:31:59.136Z,2.63
2023-03-12T16:34:28.214Z,2.80
2023-03-12T16:36:54.998Z,2.40
2023-03-12T16:39:21.902Z,2.80
2023-03-12T16:41:48.711Z,2.75
2023-03-12T16:44:21.370Z,2.55
2023-03-12T16:46:48.297Z,3.08
2023-03-12T16:49:18.087Z,2.90
2023-03-12T16:51:44.920Z,3.00
2023-03-12T16:54:12.518Z,3.08
2023-03-12T16:56:44.943Z,2.83
2023-03-12T16:59:26.838Z,2.60
2023-03-12T17:01:54.075Z,3.10
2023-03-12T17:04:21.031Z,2.90
2023-03-12T17:06:47.970Z,2.85
2023-03-12T17:09:14.802Z,3.13
2023-03-12T17:11:42.094Z,3.50
2023-03-12T17:14:22.159Z,3.70
2023-03-12T17:16:49.861Z,3.22
2023-03-12T17:19:17.081Z,3.22
2023-03-12T17:21:44.553Z,2.95
2023-03-12T17:24:14.072Z,3.70
2023-03-12T17:26:43.284Z,3.92
2023-03-12T17:29:10.048Z,3.38
2023-03-12T17:31:37.617Z,3.70
2023-03-12T17:34:04.976Z,3.88
2023-03-12T17:36:31.976Z,3.78
2023-03-12T17:38:58.720Z,3.67
2023-03-12T17:41:27.129Z,3.50
2023-03-12T17:43:55.315Z,5.57
2023-03-12T17:46:22.477Z,4.32
2023-03-12T17:48:49.283Z,3.10
2023-03-12T17:51:16.085Z,2.95
2023-03-12T17:53:42.830Z,2.67
2023-03-12T17:56:12.373Z,4.00
2023-03-12T17:58:39.533Z,3.45
2023-03-12T18:01:06.334Z,3.20
2023-03-12T18:03:33.150Z,2.97
2023-03-12T18:05:59.972Z,2.67
2023-03-12T18:08:26.748Z,2.90
2023-03-12T18:10:53.588Z,3.00
2023-03-12T18:13:20.344Z,2.60
2023-03-12T18:15:56.714Z,3.65
2023-03-12T18:18:26.109Z,3.28
2023-03-12T18:20:53.270Z,3.03
2023-03-12T18:23:20.242Z,2.63
2023-03-12T18:25:47.102Z,3.10
2023-03-12T18:28:15.232Z,3.05
2023-03-12T18:30:42.080Z,2.88
2023-03-12T18:33:08.885Z,3.03
2023-03-12T18:35:35.647Z,3.35
2023-03-12T18:38:02.862Z,3.30
2023-03-12T18:40:30.141Z,3.35
2023-03-12T18:43:03.096Z,3.80
2023-03-12T18:45:30.652Z,3.85
2023-03-12T18:47:57.454Z,4.28
2023-03-12T18:50:24.394Z,3.78
2023-03-12T18:52:51.231Z,3.28
2023-03-12T18:55:18.317Z,2.92
2023-03-12T18:57:47.600Z,3.30
2023-03-12T19:00:17.802Z,4.07
2023-03-12T19:02:47.845Z,3.72
2023-03-12T19:05:15.232Z,3.55
2023-03-12T19:07:42.311Z,3.10
2023-03-12T19:10:10.314Z,3.45
2023-03-12T19:12:50.789Z,3.80
2023-03-12T19:15:24.111Z,3.40
2023-03-12T19:17:51.546Z,3.60
2023-03-12T19:20:18.601Z,3.38
2023-03-12T19:22:45.495Z,3.42
2023-03-12T19:25:12.777Z,3.67
2023-03-12T19:27:39.612Z,3.45
2023-03-12T19:30:07.491Z,3.58
2023-03-12T19:32:43.198Z,4.30
2023-03-12T19:35:14.266Z,3.83
2023-03-12T19:37:42.547Z,4.35
2023-03-12T19:40:11.026Z,3.53
2023-03-12T19:42:38.483Z,3.85
2023-03-12T19:45:05.777Z,5.40
2023-03-12T19:47:33.296Z,5.30
2023-03-12T19:50:00.750Z,4.47
2023-03-12T19:52:27.742Z,4.47
2023-03-12T19:55:03.833Z,4.35
2023-03-12T19:57:31.682Z,4.10
2023-03-12T19:59:58.521Z,4.10
2023-03-12T20:02:26.043Z,4.15
2023-03-12T20:04:52.964Z,3.90
2023-03-12T20:07:19.836Z,4.00
2023-03-12T20:09:46.609Z,4.60
2023-03-12T20:12:13.515Z,3.92
2023-03-12T20:14:42.535Z,4.30
2023-03-12T20:17:11.066Z,3.85
2023-03-12T20:19:38.922Z,3.60
2023-03-12T20:22:06.825Z,4.60
2023-03-12T20:24:33.610Z,4.07
2023-03-12T20:27:00.404Z,4.38
2023-03-12T20:29:27.139Z,4.10
2023-03-12T20:31:54.232Z,4.00
2023-03-12T20:34:21.102Z,4.50
2023-03-12T20:36:47.859Z,4.20
2023-03-12T20:39:14.662Z,4.70
2023-03-12T20:41:41.477Z,4.05
2023-03-12T20:44:08.204Z,4.50
2023-03-12T20:46:34.968Z,4.65
2023-03-12T20:49:01.822Z,5.00
2023-03-12T20:51:28.556Z,4.30
2023-03-12T20:53:55.317Z,3.83
2023-03-12T20:56:22.073Z,4.38
2023-03-12T20:58:48.820Z,4.25
2023-03-12T21:01:15.688Z,4.63
2023-03-12T21:03:42.636Z,4.63
2023-03-12T21:06:09.427Z,4.25
2023-03-12T21:08:36.204Z,4.78
2023-03-12T21:11:07.096Z,4.20
2023-03-12T21:13:33.980Z,4.85
2023-03-12T21:16:00.778Z,4.90
2023-03-12T21:18:28.994Z,4.53
2023-03-12T21:21:03.389Z,4.82
2023-03-12T21:23:31.398Z,5.18
2023-03-12T21:26:07.188Z,4.32
2023-03-12T21:28:35.544Z,4.72
2023-03-12T21:31:12.706Z,5.25
2023-03-12T21:33:39.806Z,5.00
2023-03-12T21:36:10.388Z,4.40
2023-03-12T21:38:39.215Z,5.10
2023-03-12T21:41:12.185Z,4.80
2023-03-12T21:43:39.535Z,4.20
2023-03-12T21:46:09.466Z,4.50
2023-03-12T21:48:36.620Z,5.20
2023-03-12T21:51:10.103Z,5.25
2023-03-12T21:53:37.730Z,4.95
2023-03-12T21:56:07.314Z,4.90
2023-03-12T21:58:35.462Z,5.22
2023-03-12T22:01:18.129Z,5.18
2023-03-12T22:03:46.596Z,6.30
2023-03-12T22:06:15.327Z,5.60
2023-03-12T22:08:45.281Z,5.22
2023-03-12T22:11:12.026Z,5.50
2023-03-12T22:13:38.788Z,5.05
2023-03-12T22:16:08.293Z,4.95
2023-03-12T22:18:40.735Z,5.20
2023-03-12T22:21:12.878Z,5.57
2023-03-12T22:23:39.664Z,5.38
2023-03-12T22:26:07.744Z,5.15
2023-03-12T22:28:35.552Z,5.35
2023-03-12T22:31:06.615Z,5.00
2023-03-12T22:33:36.908Z,4.95
2023-03-12T22:36:12.938Z,4.90
2023-03-12T22:38:39.965Z,4.80
2023-03-12T22:41:23.982Z,5.25
2023-03-12T22:43:53.630Z,5.55
2023-03-12T22:46:23.556Z,5.05
2023-03-12T22:48:56.910Z,4.63
2023-03-12T22:51:24.748Z,5.03
2023-03-12T22:53:51.696Z,5.20
2023-03-12T22:56:18.742Z,5.15
2023-03-12T22:58:45.930Z,4.57
2023-03-12T23:01:16.082Z,5.22
2023-03-12T23:03:45.463Z,4.47
2023-03-12T23:06:16.999Z,5.18
2023-03-12T23:08:46.942Z,5.93
2023-03-12T23:11:14.834Z,5.30
2023-03-12T23:13:44.609Z,5.03
2023-03-12T23:16:19.143Z,5.25
2023-03-12T23:18:47.175Z,5.15
2023-03-12T23:21:18.595Z,4.95
2023-03-12T23:23:46.303Z,4.53
2023-03-12T23:26:19.752Z,5.22
2023-03-12T23:28:47.441Z,5.15
2023-03-12T23:31:16.054Z,5.38
2023-03-12T23:33:43.266Z,4.85
2023-03-12T23:36:22.866Z,4.63
2023-03-12T23:38:50.748Z,4.93
2023-03-12T23:41:21.842Z,4.03
2023-03-12T23:43:49.296Z,4.85
2023-03-12T23:46:17.409Z,4.45
2023-03-12T23:48:47.859Z,4.68
2023-03-12T23:51:21.706Z,4.15
2023-03-12T23:53:51.128Z,4.28
2023-03-12T23:56:24.779Z,4.90
2023-03-12T23:58:51.834Z,4.10
